createdAt,value
2023-02-06T00:01:23.088Z,23.90
2023-02-06T00:03:50.659Z,23.90
2023-02-06T00:06:18.679Z,23.90
2023-02-06T00:08:46.257Z,23.90
2023-02-06T00:11:16.704Z,23.90
2023-02-06T00:13:46.288Z,23.90
2023-02-06T00:16:18.202Z,23.90
2023-02-06T00:18:45.827Z,23.90
2023-02-06T00:21:13.977Z,23.90
2023-02-06T00:23:41.843Z,23.90
2023-02-06T00:26:09.454Z,23.90
2023-02-06T00:28:37.064Z,23.80
2023-02-06T00:31:08.079Z,23.80
2023-02-06T00:33:36.242Z,23.80
2023-02-06T00:36:04.800Z,23.80
2023-02-06T00:38:32.566Z,23.80
2023-02-06T00:41:00.246Z,23.80
2023-02-06T00:43:27.833Z,23.80
2023-02-06T00:45:56.843Z,23.80
2023-02-06T00:48:26.546Z,23.70
2023-02-06T00:50:55.075Z,23.70
2023-02-06T00:53:22.805Z,23.70
2023-02-06T00:55:50.402Z,23.70
2023-02-06T00:58:18.030Z,23.70
2023-02-06T01:00:45.806Z,23.70
2023-02-06T01:03:13.494Z,23.70
2023-02-06T01:05:42.444Z,23.60
2023-02-06T01:08:10.062Z,23.60
2023-02-06T01:10:37.721Z,23.60
2023-02-06T01:13:05.297Z,23.60
2023-02-06T01:15:33.058Z,23.60
2023-02-06T01:18:02.103Z,23.60
2023-02-06T01:20:29.759Z,23.60
2023-02-06T01:22:58.664Z,23.60
2023-02-06T01:25:26.244Z,23.60
2023-02-06T01:27:53.981Z,23.60
2023-02-06T01:30:21.629Z,23.60
2023-02-06T01:32:49.253Z,23.50
2023-02-06T01:35:16.909Z,23.50
2023-02-06T01:37:44.639Z,23.50
2023-02-06T01:40:17.339Z,23.50
2023-02-06T01:42:45.288Z,23.50
2023-02-06T01:45:35.783Z,23.50
2023-02-06T01:48:08.780Z,23.50
2023-02-06T01:50:39.485Z,23.50
2023-02-06T01:53:07.958Z,23.50
2023-02-06T01:55:39.171Z,23.40
2023-02-06T01:58:08.472Z,23.40
2023-02-06T02:00:36.368Z,23.40
2023-02-06T02:03:05.719Z,23.40
2023-02-06T02:05:34.815Z,23.40
2023-02-06T02:08:07.366Z,23.40
2023-02-06T02:10:35.371Z,23.40
2023-02-06T02:13:04.407Z,23.40
2023-02-06T02:15:41.576Z,23.40
2023-02-06T02:18:23.152Z,23.30
2023-02-06T02:21:10.152Z,23.30
2023-02-06T02:23:43.879Z,23.30
2023-02-06T02:26:46.807Z,23.30
2023-02-06T02:29:56.184Z,23.30
2023-02-06T02:32:46.220Z,23.30
2023-02-06T02:35:24.010Z,23.30
2023-02-06T02:38:02.787Z,23.30
2023-02-06T02:40:39.270Z,23.20
2023-02-06T02:43:15.804Z,23.20
2023-02-06T02:45:49.337Z,23.20
2023-02-06T02:48:24.600Z,23.20
2023-02-06T02:50:56.082Z,23.20
2023-02-06T02:53:23.679Z,23.20
2023-02-06T02:55:51.222Z,23.20
2023-02-06T02:58:22.569Z,23.20
2023-02-06T03:00:55.351Z,23.20
2023-02-06T03:03:28.768Z,23.10
2023-02-06T03:06:16.271Z,23.10
2023-02-06T03:08:50.589Z,23.10
2023-02-06T03:11:20.823Z,23.10
2023-02-06T03:13:54.690Z,23.10
2023-02-06T03:16:25.876Z,23.10
2023-02-06T03:18:58.322Z,23.10
2023-02-06T03:21:30.324Z,23.10
2023-02-06T03:24:01.862Z,23.10
2023-02-06T03:26:31.578Z,23.10
2023-02-06T03:29:01.993Z,23.10
2023-02-06T03:31:33.191Z,23.10
2023-02-06T03:34:07.332Z,23.00
2023-02-06T03:36:36.731Z,23.00
2023-02-06T03:39:05.078Z,23.00
2023-02-06T03:41:36.384Z,23.00
2023-02-06T03:44:07.037Z,23.00
2023-02-06T03:46:37.525Z,23.00
2023-02-06T03:49:08.805Z,23.00
2023-02-06T03:51:41.383Z,23.00
2023-02-06T03:54:12.024Z,22.90
2023-02-06T03:56:44.608Z,22.90
2023-02-06T03:59:12.368Z,22.90
2023-02-06T04:01:42.994Z,22.90
2023-02-06T04:04:10.585Z,22.90
2023-02-06T04:06:39.480Z,22.90
2023-02-06T04:09:07.037Z,22.90
2023-02-06T04:11:34.611Z,22.90
2023-02-06T04:14:02.155Z,22.90
2023-02-06T04:16:30.041Z,22.90
2023-02-06T04:18:57.624Z,22.90
2023-02-06T04:21:25.219Z,22.90
2023-02-06T04:23:54.818Z,22.90
2023-02-06T04:26:22.384Z,22.90
2023-02-06T04:28:49.912Z,22.90
2023-02-06T04:31:17.556Z,22.90
2023-02-06T04:33:45.168Z,23.00
2023-02-06T04:36:12.815Z,23.00
2023-02-06T04:38:40.373Z,23.00
2023-02-06T04:41:09.297Z,23.00
2023-02-06T04:43:36.842Z,23.00
2023-02-06T04:46:04.739Z,23.10
2023-02-06T04:48:32.328Z,23.10
2023-02-06T04:50:59.958Z,23.10
2023-02-06T04:53:27.572Z,23.10
2023-02-06T04:55:56.346Z,23.10
2023-02-06T04:58:25.226Z,23.10
2023-02-06T05:00:52.806Z,23.10
2023-02-06T05:03:20.333Z,23.10
2023-02-06T05:05:47.878Z,23.10
2023-02-06T05:08:15.435Z,23.10
2023-02-06T05:10:43.059Z,23.10
2023-02-06T05:13:11.099Z,23.10
2023-02-06T05:15:40.647Z,23.10
2023-02-06T05:18:08.220Z,23.10
2023-02-06T05:20:35.797Z,23.10
2023-02-06T05:23:03.345Z,23.10
2023-02-06T05:25:31.163Z,23.10
2023-02-06T05:27:58.814Z,23.10
2023-02-06T05:30:26.446Z,23.10
2023-02-06T05:32:55.340Z,23.10
2023-02-06T05:35:23.074Z,23.10
2023-02-06T05:37:50.637Z,23.20
2023-02-06T05:40:18.611Z,23.20
2023-02-06T05:42:46.236Z,23.20
2023-02-06T05:45:13.853Z,23.20
2023-02-06T05:47:41.430Z,23.20
2023-02-06T05:50:10.942Z,23.20
2023-02-06T05:52:38.473Z,23.20
2023-02-06T05:55:06.609Z,23.30
2023-02-06T05:57:34.166Z,23.30
2023-02-06T06:00:02.351Z,23.30
2023-02-06T06:02:29.917Z,23.30
2023-02-06T06:04:57.786Z,23.30
2023-02-06T06:07:27.269Z,23.30
2023-02-06T06:09:55.689Z,23.40
2023-02-06T06:12:23.314Z,23.40
2023-02-06T06:14:50.872Z,23.40
2023-02-06T06:17:18.419Z,23.40
2023-02-06T06:19:46.074Z,23.40
2023-02-06T06:22:13.675Z,23.40
2023-02-06T06:24:42.590Z,23.40
2023-02-06T06:27:10.822Z,23.40
2023-02-06T06:29:38.646Z,23.40
2023-02-06T06:32:06.681Z,23.40
2023-02-06T06:34:34.280Z,23.50
2023-02-06T06:37:01.939Z,23.50
2023-02-06T06:39:29.506Z,23.50
2023-02-06T06:41:58.401Z,23.50
2023-02-06T06:44:25.973Z,23.50
2023-02-06T06:46:53.656Z,23.50
2023-02-06T06:49:21.190Z,23.50
2023-02-06T06:51:48.810Z,23.50
2023-02-06T06:54:16.902Z,23.60
2023-02-06T06:56:44.513Z,23.60
2023-02-06T06:59:13.495Z,23.60
2023-02-06T07:01:41.327Z,23.60
2023-02-06T07:04:08.922Z,23.60
2023-02-06T07:06:36.720Z,23.60
2023-02-06T07:09:04.483Z,23.60
2023-02-06T07:11:32.068Z,23.70
2023-02-06T07:13:59.877Z,23.70
2023-02-06T07:16:29.121Z,23.70
2023-02-06T07:18:56.945Z,23.70
2023-02-06T07:21:24.570Z,23.70
2023-02-06T07:23:54.625Z,23.80
2023-02-06T07:26:22.938Z,23.80
2023-02-06T07:28:52.626Z,23.80
2023-02-06T07:31:20.826Z,23.80
2023-02-06T07:33:49.754Z,23.80
2023-02-06T07:36:18.549Z,23.80
2023-02-06T07:38:46.627Z,23.90
2023-02-06T07:41:14.257Z,23.90
2023-02-06T07:43:41.828Z,23.90
2023-02-06T07:46:09.515Z,23.90
2023-02-06T07:48:37.128Z,23.90
2023-02-06T07:51:09.417Z,23.90
2023-02-06T07:53:39.203Z,24.00
2023-02-06T07:56:16.373Z,24.00
2023-02-06T07:58:44.384Z,24.00
2023-02-06T08:01:12.631Z,24.00
2023-02-06T08:03:41.065Z,24.00
2023-02-06T08:06:11.429Z,24.00
2023-02-06T08:08:39.385Z,24.00
2023-02-06T08:11:07.832Z,24.10
2023-02-06T08:13:35.953Z,24.10
2023-02-06T08:16:09.303Z,24.10
2023-02-06T08:18:38.016Z,24.10
2023-02-06T08:21:07.818Z,24.10
2023-02-06T08:23:36.893Z,24.20
2023-02-06T08:26:07.137Z,24.20
2023-02-06T08:28:36.677Z,24.20
2023-02-06T08:31:11.497Z,24.20
2023-02-06T08:33:40.906Z,24.20
2023-02-06T08:36:09.970Z,24.30
2023-02-06T08:38:39.728Z,24.30
2023-02-06T08:41:17.552Z,24.30
2023-02-06T08:43:45.926Z,24.30
2023-02-06T08:46:14.458Z,24.30
2023-02-06T08:48:42.514Z,24.40
2023-02-06T08:51:11.755Z,24.40
2023-02-06T08:53:40.673Z,24.40
2023-02-06T08:56:11.946Z,24.50
2023-02-06T08:58:40.137Z,24.40
2023-02-06T09:01:08.736Z,24.50
2023-02-06T09:03:36.827Z,24.50
2023-02-06T09:06:10.264Z,24.50
2023-02-06T09:08:43.009Z,24.60
2023-02-06T09:11:17.524Z,24.60
2023-02-06T09:13:49.252Z,24.60
2023-02-06T09:16:18.361Z,24.70
2023-02-06T09:18:47.136Z,24.70
2023-02-06T09:21:16.768Z,24.70
2023-02-06T09:23:47.917Z,24.80
2023-02-06T09:26:19.026Z,24.80
2023-02-06T09:28:46.639Z,24.80
2023-02-06T09:31:14.371Z,24.90
2023-02-06T09:33:41.989Z,24.90
2023-02-06T09:36:12.756Z,24.90
2023-02-06T09:38:44.847Z,24.90
2023-02-06T09:41:21.474Z,25.00
2023-02-06T09:43:52.623Z,25.00
2023-02-06T09:46:27.342Z,25.00
2023-02-06T09:48:57.653Z,25.00
2023-02-06T09:51:35.014Z,25.00
2023-02-06T09:54:09.915Z,25.10
2023-02-06T09:56:44.831Z,25.10
2023-02-06T09:59:18.775Z,25.10
2023-02-06T10:01:53.602Z,25.10
2023-02-06T10:04:41.197Z,25.20
2023-02-06T10:07:23.869Z,25.20
2023-02-06T10:09:57.240Z,25.20
2023-02-06T10:12:31.615Z,25.30
2023-02-06T10:15:04.000Z,25.30
2023-02-06T10:17:35.126Z,25.30
2023-02-06T10:20:07.551Z,25.40
2023-02-06T10:22:54.473Z,25.40
2023-02-06T10:25:26.046Z,25.50
2023-02-06T10:28:24.265Z,25.50
2023-02-06T10:31:17.184Z,25.50
2023-02-06T10:33:52.193Z,25.50
2023-02-06T10:36:38.506Z,25.50
2023-02-06T10:39:21.590Z,25.50
2023-02-06T10:41:57.755Z,25.50
2023-02-06T10:44:31.400Z,25.50
2023-02-06T10:47:00.789Z,25.50
2023-02-06T10:49:35.034Z,25.40
2023-02-06T10:52:05.003Z,25.40
2023-02-06T10:54:37.398Z,25.40
2023-02-06T10:57:12.781Z,25.30
2023-02-06T10:59:45.886Z,25.30
2023-02-06T11:02:21.637Z,25.30
2023-02-06T11:04:54.876Z,25.30
2023-02-06T11:07:27.979Z,25.20
2023-02-06T11:09:56.030Z,25.20
2023-02-06T11:12:30.568Z,25.20
2023-02-06T11:15:04.844Z,25.20
2023-02-06T11:17:32.754Z,25.20
2023-02-06T11:20:06.263Z,25.20
2023-02-06T11:22:44.232Z,25.20
2023-02-06T11:25:22.888Z,25.20
2023-02-06T11:27:50.646Z,25.10
2023-02-06T11:30:42.794Z,25.10
2023-02-06T11:33:20.625Z,25.20
2023-02-06T11:35:50.369Z,25.10
2023-02-06T11:38:21.443Z,25.10
2023-02-06T11:40:56.571Z,25.10
2023-02-06T11:43:26.239Z,25.10
2023-02-06T11:46:16.130Z,25.10
2023-02-06T11:48:46.000Z,25.10
2023-02-06T11:51:15.000Z,25.10
2023-02-06T11:53:57.844Z,25.10
2023-02-06T11:56:25.973Z,25.10
2023-02-06T11:59:06.968Z,25.00
2023-02-06T12:01:45.288Z,25.00
2023-02-06T12:04:23.942Z,25.00
2023-02-06T12:06:55.713Z,25.00
2023-02-06T12:09:23.355Z,25.00
2023-02-06T12:11:54.564Z,25.00
2023-02-06T12:14:26.359Z,25.00
2023-02-06T12:16:55.660Z,24.90
2023-02-06T12:19:31.593Z,24.90
2023-02-06T12:22:04.002Z,24.90
2023-02-06T12:24:45.029Z,24.90
2023-02-06T12:27:32.579Z,24.90
2023-02-06T12:30:08.640Z,24.90
2023-02-06T12:32:42.238Z,24.90
2023-02-06T12:35:18.531Z,24.90
2023-02-06T12:37:51.947Z,24.90
2023-02-06T12:40:34.943Z,24.90
2023-02-06T12:43:07.979Z,24.90
2023-02-06T12:45:45.060Z,24.90
2023-02-06T12:48:21.478Z,24.90
2023-02-06T12:51:05.733Z,24.90
2023-02-06T12:53:38.091Z,24.90
2023-02-06T12:56:11.815Z,24.90
2023-02-06T12:58:54.985Z,24.90
2023-02-06T13:01:40.609Z,24.90
2023-02-06T13:04:16.313Z,24.90
2023-02-06T13:07:04.244Z,24.90
2023-02-06T13:09:43.452Z,24.90
2023-02-06T13:12:17.940Z,24.90
2023-02-06T13:14:49.553Z,24.90
2023-02-06T13:17:21.455Z,24.90
2023-02-06T13:20:05.775Z,24.90
2023-02-06T13:22:43.288Z,24.90
2023-02-06T13:25:51.099Z,24.90
2023-02-06T13:28:42.382Z,24.90
2023-02-06T13:31:33.020Z,24.90
2023-02-06T13:34:16.220Z,24.90
2023-02-06T13:36:52.625Z,24.90
2023-02-06T13:39:27.577Z,24.90
2023-02-06T13:42:03.196Z,24.90
2023-02-06T13:44:35.438Z,24.90
2023-02-06T13:47:30.560Z,25.00
2023-02-06T13:50:25.309Z,25.00
2023-02-06T13:53:16.764Z,24.90
2023-02-06T13:55:56.144Z,25.00
2023-02-06T13:58:40.844Z,25.00
2023-02-06T14:01:15.518Z,25.00
2023-02-06T14:03:50.384Z,25.00
2023-02-06T14:06:49.903Z,25.00
2023-02-06T14:09:36.615Z,25.00
2023-02-06T14:12:31.691Z,25.00
2023-02-06T14:15:08.112Z,25.00
2023-02-06T14:17:46.583Z,25.00
2023-02-06T14:20:25.552Z,25.00
2023-02-06T14:23:03.853Z,25.00
2023-02-06T14:25:46.991Z,25.00
2023-02-06T14:28:27.146Z,25.00
2023-02-06T14:31:10.073Z,25.00
2023-02-06T14:33:57.298Z,25.00
2023-02-06T14:36:41.056Z,25.00
2023-02-06T14:39:43.933Z,25.00
2023-02-06T14:42:18.933Z,25.00
2023-02-06T14:44:51.376Z,25.00
2023-02-06T14:47:22.876Z,25.00
2023-02-06T14:49:51.416Z,25.00
2023-02-06T14:52:29.308Z,25.00
2023-02-06T14:54:57.134Z,25.00
2023-02-06T14:57:28.334Z,25.00
2023-02-06T15:00:19.226Z,25.00
2023-02-06T15:02:47.501Z,25.00
2023-02-06T15:05:25.546Z,25.00
2023-02-06T15:08:00.117Z,25.00
2023-02-06T15:10:30.441Z,25.00
2023-02-06T15:12:59.946Z,25.00
2023-02-06T15:15:29.505Z,25.00
2023-02-06T15:18:24.580Z,25.00
2023-02-06T15:20:57.043Z,25.00
2023-02-06T15:23:39.143Z,25.00
2023-02-06T15:26:19.977Z,25.00
2023-02-06T15:28:49.163Z,25.00
2023-02-06T15:31:20.177Z,25.00
2023-02-06T15:33:51.370Z,25.00
2023-02-06T15:36:54.482Z,25.00
2023-02-06T15:39:25.024Z,25.00
2023-02-06T15:41:53.798Z,25.00
2023-02-06T15:44:28.571Z,25.10
2023-02-06T15:46:58.340Z,25.10
2023-02-06T15:49:37.958Z,25.10
2023-02-06T15:52:08.313Z,25.10
2023-02-06T15:54:36.619Z,25.10
2023-02-06T15:57:08.148Z,25.10
2023-02-06T15:59:41.323Z,25.10
2023-02-06T16:02:20.868Z,25.10
2023-02-06T16:04:53.527Z,25.10
2023-02-06T16:07:24.678Z,25.10
2023-02-06T16:09:55.485Z,25.10
2023-02-06T16:12:24.852Z,25.00
2023-02-06T16:14:58.236Z,25.00
2023-02-06T16:17:35.555Z,25.00
2023-02-06T16:20:07.275Z,25.00
2023-02-06T16:22:38.223Z,25.00
2023-02-06T16:25:22.683Z,25.00
2023-02-06T16:27:52.951Z,25.00
2023-02-06T16:30:25.763Z,25.00
2023-02-06T16:32:55.454Z,25.10
2023-02-06T16:35:23.988Z,25.10
2023-02-06T16:37:53.549Z,25.10
2023-02-06T16:40:22.185Z,25.10
2023-02-06T16:42:49.908Z,25.10
2023-02-06T16:45:20.327Z,25.10
2023-02-06T16:47:49.532Z,25.10
2023-02-06T16:50:18.435Z,25.10
2023-02-06T16:52:48.919Z,25.10
2023-02-06T16:55:22.888Z,25.10
2023-02-06T16:57:53.701Z,25.00
2023-02-06T17:00:24.027Z,25.10
2023-02-06T17:02:54.067Z,25.00
2023-02-06T17:05:24.066Z,25.00
2023-02-06T17:07:52.705Z,25.00
2023-02-06T17:10:23.479Z,25.00
2023-02-06T17:12:52.202Z,25.00
2023-02-06T17:15:20.745Z,25.00
2023-02-06T17:17:48.469Z,25.00
2023-02-06T17:20:25.955Z,25.00
2023-02-06T17:22:53.589Z,25.00
2023-02-06T17:25:21.201Z,25.00
2023-02-06T17:27:49.110Z,25.00
2023-02-06T17:30:19.585Z,25.00
2023-02-06T17:32:47.266Z,25.00
2023-02-06T17:35:14.951Z,25.00
2023-02-06T17:37:43.940Z,25.00
2023-02-06T17:40:18.425Z,25.00
2023-02-06T17:42:46.102Z,25.00
2023-02-06T17:45:13.742Z,25.00
2023-02-06T17:47:41.659Z,25.00
2023-02-06T17:50:10.428Z,25.00
2023-02-06T17:52:38.111Z,25.00
2023-02-06T17:55:08.188Z,25.00
2023-02-06T17:57:36.229Z,24.90
2023-02-06T18:00:06.168Z,24.90
2023-02-06T18:02:34.382Z,24.90
2023-02-06T18:05:04.022Z,24.90
2023-02-06T18:07:31.808Z,24.90
2023-02-06T18:09:59.751Z,24.90
2023-02-06T18:12:29.218Z,24.90
2023-02-06T18:14:57.055Z,24.90
2023-02-06T18:17:24.816Z,24.90
2023-02-06T18:19:52.553Z,24.90
2023-02-06T18:22:22.453Z,24.90
2023-02-06T18:24:51.074Z,24.90
2023-02-06T18:27:20.437Z,24.90
2023-02-06T18:29:50.945Z,24.90
2023-02-06T18:32:19.735Z,24.90
2023-02-06T18:34:48.511Z,24.80
2023-02-06T18:37:16.352Z,24.90
2023-02-06T18:39:44.108Z,24.80
2023-02-06T18:42:29.831Z,24.80
2023-02-06T18:44:58.837Z,24.80
2023-02-06T18:47:26.500Z,24.80
2023-02-06T18:49:54.174Z,24.80
2023-02-06T18:52:22.175Z,24.80
2023-02-06T18:54:49.834Z,24.80
2023-02-06T18:57:17.607Z,24.80
2023-02-06T18:59:45.274Z,24.80
2023-02-06T19:02:14.570Z,24.80
2023-02-06T19:04:42.715Z,24.80
2023-02-06T19:07:11.687Z,24.90
2023-02-06T19:09:39.459Z,24.90
2023-02-06T19:12:07.855Z,24.90
2023-02-06T19:14:35.765Z,24.90
2023-02-06T19:17:03.488Z,24.90
2023-02-06T19:19:32.562Z,24.90
2023-02-06T19:22:00.302Z,24.90
2023-02-06T19:24:30.595Z,24.90
2023-02-06T19:26:58.526Z,24.90
2023-02-06T19:29:35.092Z,24.90
2023-02-06T19:32:04.829Z,24.90
2023-02-06T19:34:36.126Z,24.90
2023-02-06T19:37:04.304Z,24.90
2023-02-06T19:39:34.082Z,24.90
2023-02-06T19:42:02.218Z,24.90
2023-02-06T19:44:32.710Z,24.90
2023-02-06T19:47:00.725Z,24.90
2023-02-06T19:49:28.681Z,24.90
2023-02-06T19:51:58.039Z,24.90
2023-02-06T19:54:27.107Z,24.90
2023-02-06T19:56:55.379Z,25.00
2023-02-06T19:59:25.211Z,25.00
2023-02-06T20:01:55.199Z,25.00
2023-02-06T20:04:25.218Z,25.00
2023-02-06T20:06:55.802Z,25.00
2023-02-06T20:09:25.836Z,25.00
2023-02-06T20:11:53.526Z,25.00
2023-02-06T20:14:23.709Z,25.10
2023-02-06T20:16:51.922Z,25.10
2023-02-06T20:19:22.928Z,25.10
2023-02-06T20:21:53.456Z,25.10
2023-02-06T20:24:24.714Z,25.10
2023-02-06T20:26:56.477Z,25.10
2023-02-06T20:29:26.671Z,25.10
2023-02-06T20:31:55.528Z,25.10
2023-02-06T20:34:23.967Z,25.10
2023-02-06T20:36:55.021Z,25.10
2023-02-06T20:39:24.880Z,25.10
2023-02-06T20:41:52.874Z,25.10
2023-02-06T20:44:26.448Z,25.10
2023-02-06T20:46:54.523Z,25.10
2023-02-06T20:49:25.329Z,25.10
2023-02-06T20:51:53.938Z,25.00
2023-02-06T20:54:22.559Z,25.00
2023-02-06T20:56:51.896Z,25.00
2023-02-06T20:59:21.482Z,25.00
2023-02-06T21:01:49.717Z,25.00
2023-02-06T21:04:18.825Z,25.00
2023-02-06T21:06:48.576Z,25.00
2023-02-06T21:09:17.079Z,25.00
2023-02-06T21:11:46.929Z,24.90
2023-02-06T21:14:16.910Z,24.90
2023-02-06T21:16:45.214Z,24.90
2023-02-06T21:19:15.341Z,24.90
2023-02-06T21:21:45.962Z,24.90
2023-02-06T21:24:14.369Z,24.90
2023-02-06T21:26:42.082Z,24.90
2023-02-06T21:29:14.091Z,24.90
2023-02-06T21:31:46.254Z,24.90
2023-02-06T21:34:17.407Z,24.80
2023-02-06T21:36:45.715Z,24.80
2023-02-06T21:39:16.699Z,24.80
2023-02-06T21:41:46.341Z,24.80
2023-02-06T21:44:15.406Z,24.80
2023-02-06T21:46:44.671Z,24.80
2023-02-06T21:49:13.522Z,24.80
2023-02-06T21:51:41.864Z,24.80
2023-02-06T21:54:09.953Z,24.80
2023-02-06T21:56:38.999Z,24.80
2023-02-06T21:59:07.135Z,24.70
2023-02-06T22:01:35.051Z,24.70
2023-02-06T22:04:06.762Z,24.70
2023-02-06T22:06:38.789Z,24.70
2023-02-06T22:09:09.568Z,24.70
2023-02-06T22:11:40.035Z,24.70
2023-02-06T22:14:11.189Z,24.70
2023-02-06T22:16:40.643Z,24.70
2023-02-06T22:19:11.637Z,24.60
2023-02-06T22:21:43.059Z,24.60
2023-02-06T22:24:13.299Z,24.60
2023-02-06T22:26:41.781Z,24.60
2023-02-06T22:29:13.507Z,24.60
2023-02-06T22:31:44.007Z,24.60
2023-02-06T22:34:16.555Z,24.60
2023-02-06T22:36:45.446Z,24.60
2023-02-06T22:39:14.595Z,24.60
2023-02-06T22:41:45.141Z,24.60
2023-02-06T22:44:16.425Z,24.50
2023-02-06T22:46:46.202Z,24.50
2023-02-06T22:49:18.293Z,24.50
2023-02-06T22:51:46.491Z,24.50
2023-02-06T22:54:15.616Z,24.50
2023-02-06T22:56:44.791Z,24.50
2023-02-06T22:59:14.726Z,24.50
2023-02-06T23:01:44.392Z,24.50
2023-02-06T23:04:14.480Z,24.50
2023-02-06T23:06:45.416Z,24.50
2023-02-06T23:09:19.478Z,24.50
2023-02-06T23:11:48.757Z,24.40
2023-02-06T23:14:22.083Z,24.40
2023-02-06T23:16:50.894Z,24.40
2023-02-06T23:19:19.453Z,24.40
2023-02-06T23:22:13.951Z,24.40
2023-02-06T23:24:41.754Z,24.40
2023-02-06T23:27:09.449Z,24.40
2023-02-06T23:29:37.147Z,24.40
2023-02-06T23:32:05.462Z,24.40
2023-02-06T23:34:33.780Z,24.40
2023-02-06T23:37:02.963Z,24.40
2023-02-06T23:39:30.633Z,24.40
2023-02-06T23:41:58.420Z,24.40
2023-02-06T23:44:26.020Z,24.30
2023-02-06T23:46:53.680Z,24.30
2023-02-06T23:49:21.329Z,24.30
2023-02-06T23:51:48.956Z,24.30
2023-02-06T23:54:18.100Z,24.30
2023-02-06T23:56:45.822Z,24.30
2023-02-06T23:59:13.472Z,24.30
